Time;durP1;ratioP1;P1;durP2;ratioP2;P2;SDS_P1;SDS_P2;PMS_P1;PMS_P2;Temp;Humidity;BMP_temperature;BMP_pressure;BME280_temperature;BME280_humidity;BME280_pressure;Samples;Min_cycle;Max_cycle;Signal;HPM_P1;HPM_P2
2024/01/03 00:00:56;;;;;;;11.50;6.60;;;;;;;;;;5033428;28;20439;-47
2024/01/03 00:03:23;;;;;;;13.43;7.40;;;;;;;;;;5051531;28;20104;-50
2024/01/03 00:05:49;;;;;;;22.27;8.45;;;;;;;;;;5051356;28;20021;-47
2024/01/03 00:08:19;;;;;;;12.35;7.32;;;;;;;;;;5051339;28;20482;-49
2024/01/03 00:10:58;;;;;;;11.88;6.97;;;;;;;;;;5050052;28;20025;-49
2024/01/03 00:13:33;;;;;;;12.23;7.32;;;;;;;;;;5041912;28;20464;-48
2024/01/03 00:16:03;;;;;;;11.40;6.70;;;;;;;;;;5041642;28;20024;-48
2024/01/03 00:18:32;;;;;;;11.50;6.65;;;;;;;;;;5046822;28;20025;-50
2024/01/03 00:20:59;;;;;;;14.10;7.07;;;;;;;;;;5032979;28;20100;-49
2024/01/03 00:23:30;;;;;;;12.18;6.90;;;;;;;;;;5050988;28;20494;-50
2024/01/03 00:25:56;;;;;;;11.65;6.50;;;;;;;;;;5050943;28;20054;-49
2024/01/03 00:28:22;;;;;;;12.93;6.70;;;;;;;;;;5043920;28;20040;-56
2024/01/03 00:30:48;;;;;;;11.43;6.70;;;;;;;;;;5030369;28;20470;-52
2024/01/03 00:33:15;;;;;;;11.68;6.85;;;;;;;;;;5030473;28;20030;-51
2024/01/03 00:35:41;;;;;;;11.50;6.50;;;;;;;;;;5030618;28;20056;-48
2024/01/03 00:38:07;;;;;;;12.55;6.80;;;;;;;;;;5059201;23;20049;-47
2024/01/03 00:40:55;;;;;;;12.63;8.35;;;;;;;;;;5070473;28;20027;-49
2024/01/03 00:43:21;;;;;;;12.00;7.30;;;;;;;;;;5070530;28;20036;-52
2024/01/03 00:45:48;;;;;;;11.02;6.53;;;;;;;;;;5069183;28;20035;-47
2024/01/03 00:48:17;;;;;;;11.80;6.50;;;;;;;;;;5070393;28;20021;-53
2024/01/03 00:50:43;;;;;;;14.98;7.28;;;;;;;;;;5070109;28;20020;-44
2024/01/03 00:53:10;;;;;;;17.42;7.15;;;;;;;;;;5070188;28;20047;-46
2024/01/03 00:55:36;;;;;;;10.63;6.22;;;;;;;;;;5070454;28;20103;-45
2024/01/03 00:58:03;;;;;;;12.07;7.13;;;;;;;;;;5071190;28;20035;-50
2024/01/03 01:00:29;;;;;;;12.82;8.88;;;;;;;;;;5070923;28;20056;-51
2024/01/03 01:02:55;;;;;;;10.70;6.30;;;;;;;;;;5069606;28;20036;-49
2024/01/03 01:05:21;;;;;;;14.43;7.80;;;;;;;;;;5071044;28;20600;-52
2024/01/03 01:07:47;;;;;;;10.75;6.32;;;;;;;;;;5070752;28;20024;-49
2024/01/03 01:10:13;;;;;;;22.75;8.15;;;;;;;;;;5070940;28;20397;-49
2024/01/03 01:12:39;;;;;;;19.60;6.80;;;;;;;;;;5070787;28;20446;-54
2024/01/03 01:15:05;;;;;;;15.23;7.57;;;;;;;;;;5069756;28;20108;-49
2024/01/03 01:17:31;;;;;;;11.60;6.70;;;;;;;;;;5070734;28;20111;-53
2024/01/03 01:19:57;;;;;;;13.80;7.30;;;;;;;;;;5069476;28;20070;-47
2024/01/03 01:22:25;;;;;;;12.20;6.93;;;;;;;;;;5070502;28;20036;-48
2024/01/03 01:24:51;;;;;;;13.07;7.97;;;;;;;;;;5069372;28;20079;-51
2024/01/03 01:27:17;;;;;;;17.55;6.82;;;;;;;;;;5070760;28;20060;-50
2024/01/03 01:29:43;;;;;;;11.50;6.57;;;;;;;;;;5070297;28;20015;-50
2024/01/03 01:32:09;;;;;;;12.20;7.35;;;;;;;;;;5070461;28;20021;-48
2024/01/03 01:34:35;;;;;;;10.85;6.38;;;;;;;;;;5070477;28;20031;-47
2024/01/03 01:37:01;;;;;;;14.20;7.10;;;;;;;;;;5070377;28;20017;-49
2024/01/03 01:39:27;;;;;;;11.10;6.40;;;;;;;;;;5070461;28;20145;-47
2024/01/03 01:41:53;;;;;;;12.52;7.20;;;;;;;;;;5070210;28;20025;-51
2024/01/03 01:44:19;;;;;;;11.70;7.00;;;;;;;;;;5070341;28;20033;-50
2024/01/03 01:46:46;;;;;;;11.48;6.70;;;;;;;;;;5070157;28;20089;-48
2024/01/03 01:49:14;;;;;;;12.10;7.50;;;;;;;;;;5069680;28;20027;-49
2024/01/03 01:51:40;;;;;;;14.90;7.10;;;;;;;;;;5068769;28;20032;-52
2024/01/03 01:54:07;;;;;;;14.15;7.50;;;;;;;;;;5068741;28;20102;-52
2024/01/03 01:56:33;;;;;;;12.02;6.90;;;;;;;;;;5065439;28;20029;-49
2024/01/03 01:58:59;;;;;;;15.18;7.60;;;;;;;;;;5069269;28;20097;-52
2024/01/03 02:01:27;;;;;;;11.93;6.80;;;;;;;;;;5069653;28;20020;-53
2024/01/03 02:03:53;;;;;;;14.40;7.00;;;;;;;;;;5067502;28;20544;-49
2024/01/03 02:06:20;;;;;;;16.00;7.82;;;;;;;;;;5069851;28;20017;-49
2024/01/03 02:08:46;;;;;;;15.20;8.23;;;;;;;;;;5066233;28;20112;-47
2024/01/03 02:11:12;;;;;;;17.35;7.38;;;;;;;;;;5069466;28;20017;-49
2024/01/03 02:13:38;;;;;;;13.07;7.45;;;;;;;;;;5069915;28;20103;-47
2024/01/03 02:16:05;;;;;;;13.20;7.72;;;;;;;;;;5069777;28;20013;-48
2024/01/03 02:18:31;;;;;;;12.20;7.20;;;;;;;;;;5069815;28;20025;-45
2024/01/03 02:20:57;;;;;;;12.10;7.03;;;;;;;;;;5069318;28;20028;-46
2024/01/03 02:23:24;;;;;;;12.30;7.13;;;;;;;;;;5069657;28;20074;-51
2024/01/03 02:25:50;;;;;;;12.10;7.20;;;;;;;;;;5070801;28;20079;-50
2024/01/03 02:28:16;;;;;;;14.10;7.00;;;;;;;;;;5080219;28;20609;-47
2024/01/03 02:30:44;;;;;;;12.65;7.10;;;;;;;;;;5089825;28;20025;-51
2024/01/03 02:33:11;;;;;;;11.80;6.90;;;;;;;;;;5089939;28;20031;-53
2024/01/03 02:35:37;;;;;;;14.50;7.60;;;;;;;;;;5089911;28;20016;-50
2024/01/03 02:38:03;;;;;;;11.60;7.00;;;;;;;;;;5089770;28;20479;-50
2024/01/03 02:40:29;;;;;;;12.00;7.25;;;;;;;;;;5088541;28;20028;-49
2024/01/03 02:42:55;;;;;;;12.05;7.80;;;;;;;;;;5089523;28;20054;-49
2024/01/03 02:45:21;;;;;;;10.98;6.50;;;;;;;;;;5089860;28;20508;-49
2024/01/03 02:47:47;;;;;;;11.70;6.95;;;;;;;;;;5089731;28;20024;-48
2024/01/03 02:50:13;;;;;;;18.20;7.95;;;;;;;;;;5088852;28;20020;-53
2024/01/03 02:52:39;;;;;;;11.93;6.72;;;;;;;;;;5089542;28;20046;-51
2024/01/03 02:55:05;;;;;;;14.15;7.93;;;;;;;;;;5088663;28;20024;-52
2024/01/03 02:57:31;;;;;;;13.43;7.22;;;;;;;;;;5090083;28;20028;-50
2024/01/03 02:59:57;;;;;;;12.65;7.40;;;;;;;;;;5089826;28;20024;-51
2024/01/03 03:02:23;;;;;;;20.73;7.60;;;;;;;;;;5088722;28;20118;-52
2024/01/03 03:04:49;;;;;;;10.70;6.30;;;;;;;;;;5089632;28;20032;-47
2024/01/03 03:07:15;;;;;;;15.00;7.00;;;;;;;;;;5072599;28;20031;-50
2024/01/03 03:09:41;;;;;;;11.85;7.15;;;;;;;;;;5072877;28;20414;-50
2024/01/03 03:12:07;;;;;;;11.10;6.40;;;;;;;;;;5072625;28;20021;-48
2024/01/03 03:14:33;;;;;;;11.38;6.70;;;;;;;;;;5067993;28;20017;-48
2024/01/03 03:16:59;;;;;;;15.25;7.78;;;;;;;;;;5072099;28;20023;-52
2024/01/03 03:19:25;;;;;;;16.23;7.13;;;;;;;;;;5072520;28;20024;-51
2024/01/03 03:21:51;;;;;;;11.52;6.75;;;;;;;;;;5072402;28;20051;-54
2024/01/03 03:24:17;;;;;;;11.95;6.63;;;;;;;;;;5072436;28;20020;-53
2024/01/03 03:26:43;;;;;;;12.43;6.95;;;;;;;;;;5072424;28;20020;-54
2024/01/03 03:29:09;;;;;;;11.27;6.55;;;;;;;;;;5067817;28;20079;-54
2024/01/03 03:31:35;;;;;;;11.05;6.40;;;;;;;;;;5068231;28;20500;-51
2024/01/03 03:34:01;;;;;;;13.90;7.43;;;;;;;;;;5070797;28;20017;-51
2024/01/03 03:36:27;;;;;;;12.25;6.50;;;;;;;;;;5072416;28;20474;-45
2024/01/03 03:38:54;;;;;;;14.20;8.02;;;;;;;;;;5072074;28;20036;-51
2024/01/03 03:41:21;;;;;;;12.50;7.13;;;;;;;;;;5071981;28;20024;-54
2024/01/03 03:43:47;;;;;;;11.93;6.72;;;;;;;;;;5072044;28;20471;-52
2024/01/03 03:46:13;;;;;;;11.85;6.80;;;;;;;;;;5072003;28;20070;-51
2024/01/03 03:48:39;;;;;;;12.05;6.93;;;;;;;;;;5071544;28;20119;-49
2024/01/03 03:51:05;;;;;;;12.02;7.07;;;;;;;;;;5051713;28;20028;-50
2024/01/03 03:53:31;;;;;;;14.98;7.20;;;;;;;;;;5051832;28;20609;-51
2024/01/03 03:55:57;;;;;;;12.07;6.85;;;;;;;;;;5051779;28;20108;-53
2024/01/03 03:58:23;;;;;;;11.57;6.70;;;;;;;;;;5051686;28;20021;-53
2024/01/03 04:00:49;;;;;;;11.80;6.93;;;;;;;;;;5066433;28;20109;-47
2024/01/03 04:03:15;;;;;;;11.85;7.00;;;;;;;;;;5071522;28;20016;-49
2024/01/03 04:05:41;;;;;;;11.60;6.70;;;;;;;;;;5071500;28;20055;-49
2024/01/03 04:08:07;;;;;;;12.30;7.25;;;;;;;;;;5071322;28;20048;-54
2024/01/03 04:10:33;;;;;;;10.35;5.85;;;;;;;;;;5078994;28;20432;-51
2024/01/03 04:12:59;;;;;;;10.77;5.88;;;;;;;;;;5052396;28;20024;-52
2024/01/03 04:15:25;;;;;;;10.10;6.00;;;;;;;;;;5060752;28;20021;-54
2024/01/03 04:17:52;;;;;;;14.68;7.35;;;;;;;;;;5069694;28;20471;-51
2024/01/03 04:20:18;;;;;;;21.42;8.15;;;;;;;;;;5067565;28;20055;-51
2024/01/03 04:22:44;;;;;;;14.65;10.30;;;;;;;;;;5077921;28;20017;-53
2024/01/03 04:25:11;;;;;;;22.17;11.32;;;;;;;;;;5070962;28;20020;-49
2024/01/03 04:27:37;;;;;;;14.70;9.68;;;;;;;;;;5070940;28;20051;-51
2024/01/03 04:30:03;;;;;;;20.23;11.20;;;;;;;;;;5066397;28;20029;-50
2024/01/03 04:32:29;;;;;;;13.55;8.60;;;;;;;;;;5065938;28;20103;-50
2024/01/03 04:34:55;;;;;;;18.85;10.35;;;;;;;;;;5070811;28;20023;-51
2024/01/03 04:37:21;;;;;;;12.40;7.60;;;;;;;;;;5070976;28;20016;-46
2024/01/03 04:39:47;;;;;;;11.50;6.70;;;;;;;;;;5071069;28;20033;-50
2024/01/03 04:42:14;;;;;;;15.60;7.93;;;;;;;;;;5070808;28;20016;-47
2024/01/03 04:44:44;;;;;;;11.77;6.82;;;;;;;;;;5070938;28;20478;-51
2024/01/03 04:47:10;;;;;;;12.30;7.00;;;;;;;;;;5070870;28;20363;-53
2024/01/03 04:49:36;;;;;;;13.70;7.10;;;;;;;;;;5070783;28;20043;-53
2024/01/03 04:52:02;;;;;;;11.80;6.78;;;;;;;;;;5070512;28;20601;-48
2024/01/03 04:54:29;;;;;;;14.65;7.60;;;;;;;;;;5070750;28;20634;-50
2024/01/03 04:56:55;;;;;;;12.05;7.20;;;;;;;;;;5071363;28;20021;-48
2024/01/03 04:59:21;;;;;;;13.73;6.70;;;;;;;;;;5081151;28;20019;-47
2024/01/03 05:01:48;;;;;;;11.40;6.65;;;;;;;;;;5090717;28;20469;-49
2024/01/03 05:04:14;;;;;;;11.38;6.68;;;;;;;;;;5090988;28;20016;-47
2024/01/03 05:06:40;;;;;;;11.60;6.80;;;;;;;;;;5090997;28;20024;-52
2024/01/03 05:09:06;;;;;;;11.50;6.70;;;;;;;;;;5090857;28;20028;-49
2024/01/03 05:11:32;;;;;;;18.40;8.32;;;;;;;;;;5090470;28;20486;-51
2024/01/03 05:13:58;;;;;;;11.98;6.97;;;;;;;;;;5090727;28;20031;-50
2024/01/03 05:16:24;;;;;;;13.00;7.70;;;;;;;;;;5090976;28;20487;-53
2024/01/03 05:18:50;;;;;;;22.30;8.45;;;;;;;;;;5090912;28;20031;-54
2024/01/03 05:21:16;;;;;;;11.30;6.60;;;;;;;;;;5090360;28;20493;-53
2024/01/03 05:23:42;;;;;;;11.73;6.80;;;;;;;;;;5090454;28;20039;-50
2024/01/03 05:26:08;;;;;;;12.77;7.30;;;;;;;;;;5090598;28;20024;-48
2024/01/03 05:28:34;;;;;;;16.20;8.98;;;;;;;;;;5090363;28;20109;-53
2024/01/03 05:31:00;;;;;;;13.15;6.70;;;;;;;;;;5090010;28;20375;-56
2024/01/03 05:33:26;;;;;;;16.08;7.40;;;;;;;;;;5090424;28;20104;-51
2024/01/03 05:35:52;;;;;;;14.55;6.53;;;;;;;;;;5090321;28;20500;-50
2024/01/03 05:38:18;;;;;;;11.40;6.70;;;;;;;;;;5088918;28;20032;-49
2024/01/03 05:40:44;;;;;;;12.00;7.00;;;;;;;;;;5090136;28;20465;-48
2024/01/03 05:43:14;;;;;;;11.30;6.57;;;;;;;;;;5090295;28;20562;-54
2024/01/03 05:45:40;;;;;;;12.10;7.35;;;;;;;;;;5090255;28;20039;-53
2024/01/03 05:48:06;;;;;;;12.40;7.30;;;;;;;;;;5090468;28;20023;-54
2024/01/03 05:50:32;;;;;;;11.57;6.70;;;;;;;;;;5090314;28;20056;-53
2024/01/03 05:52:58;;;;;;;12.27;6.95;;;;;;;;;;5088654;28;20434;-52
2024/01/03 05:55:24;;;;;;;11.02;6.43;;;;;;;;;;5090384;28;20031;-51
2024/01/03 05:57:50;;;;;;;12.25;7.20;;;;;;;;;;5090475;28;20078;-47
2024/01/03 06:00:16;;;;;;;10.60;6.20;;;;;;;;;;5090369;28;20588;-50
2024/01/03 06:02:43;;;;;;;12.40;6.40;;;;;;;;;;5090445;28;20031;-48
2024/01/03 06:05:10;;;;;;;10.50;6.20;;;;;;;;;;5090357;28;20036;-54
2024/01/03 06:07:36;;;;;;;10.95;6.32;;;;;;;;;;5090144;28;20028;-49
2024/01/03 06:10:02;;;;;;;23.35;8.57;;;;;;;;;;5088946;28;20840;-51
2024/01/03 06:12:29;;;;;;;11.80;6.70;;;;;;;;;;5089962;28;20036;-49
2024/01/03 06:14:55;;;;;;;11.65;7.15;;;;;;;;;;5088884;28;20024;-48
2024/01/03 06:17:21;;;;;;;10.40;6.13;;;;;;;;;;5089955;28;20493;-51
2024/01/03 06:19:47;;;;;;;14.63;7.13;;;;;;;;;;5089988;28;20047;-49
2024/01/03 06:22:14;;;;;;;14.98;6.20;;;;;;;;;;5089741;28;20031;-48
2024/01/03 06:24:40;;;;;;;10.20;6.00;;;;;;;;;;5089852;28;20020;-49
2024/01/03 06:27:06;;;;;;;10.23;6.00;;;;;;;;;;5089832;28;20050;-53
2024/01/03 06:29:32;;;;;;;13.45;6.80;;;;;;;;;;5088611;28;20081;-50
2024/01/03 06:31:58;;;;;;;11.65;7.00;;;;;;;;;;5089412;28;20020;-52
2024/01/03 06:34:24;;;;;;;15.55;7.65;;;;;;;;;;5089767;28;20078;-49
2024/01/03 06:36:50;;;;;;;12.55;6.90;;;;;;;;;;5088332;28;20024;-55
2024/01/03 06:39:16;;;;;;;11.48;6.68;;;;;;;;;;5093686;28;20082;-51
2024/01/03 06:41:42;;;;;;;10.95;6.15;;;;;;;;;;5093225;28;20095;-49
2024/01/03 06:44:08;;;;;;;11.48;6.60;;;;;;;;;;5093717;28;20676;-52
2024/01/03 06:46:33;;;;;;;14.43;6.75;;;;;;;;;;5093585;28;20036;-49
2024/01/03 06:48:59;;;;;;;10.50;6.18;;;;;;;;;;5093444;28;20020;-50
2024/01/03 06:51:26;;;;;;;10.90;6.28;;;;;;;;;;5091887;28;20527;-51
2024/01/03 06:53:52;;;;;;;11.55;6.85;;;;;;;;;;5093568;28;20017;-51
2024/01/03 06:56:21;;;;;;;11.55;6.47;;;;;;;;;;5092056;28;20055;-48
2024/01/03 06:58:48;;;;;;;10.45;6.15;;;;;;;;;;5092100;28;20031;-51
2024/01/03 07:01:14;;;;;;;10.05;5.90;;;;;;;;;;5093109;28;20016;-50
2024/01/03 07:03:40;;;;;;;11.00;6.30;;;;;;;;;;5093273;28;20050;-52
2024/01/03 07:06:06;;;;;;;10.73;6.30;;;;;;;;;;5093256;28;20016;-48
2024/01/03 07:08:32;;;;;;;11.43;6.65;;;;;;;;;;5092027;28;20023;-49
2024/01/03 07:10:58;;;;;;;17.30;7.15;;;;;;;;;;5089100;28;20035;-49
2024/01/03 07:13:24;;;;;;;11.30;6.55;;;;;;;;;;5087629;28;20030;-48
2024/01/03 07:15:50;;;;;;;12.57;6.40;;;;;;;;;;5085693;28;20502;-46
2024/01/03 07:18:16;;;;;;;10.70;6.30;;;;;;;;;;5073129;28;20027;-53
2024/01/03 07:20:42;;;;;;;11.30;6.65;;;;;;;;;;5085274;28;20503;-49
2024/01/03 07:23:08;;;;;;;10.63;6.25;;;;;;;;;;5091636;28;20020;-49
2024/01/03 07:25:34;;;;;;;11.18;6.50;;;;;;;;;;5091555;28;20478;-52
2024/01/03 07:28:00;;;;;;;13.27;6.70;;;;;;;;;;5089122;28;20034;-50
2024/01/03 07:30:28;;;;;;;11.65;6.75;;;;;;;;;;5072149;28;20095;-49
2024/01/03 07:32:57;;;;;;;10.60;6.20;;;;;;;;;;5070866;28;20375;-54
2024/01/03 07:35:24;;;;;;;11.45;6.60;;;;;;;;;;5072183;28;20497;-48
2024/01/03 07:37:50;;;;;;;10.50;6.20;;;;;;;;;;5072042;28;20032;-48
2024/01/03 07:40:16;;;;;;;11.00;6.38;;;;;;;;;;5071988;28;20104;-46
2024/01/03 07:42:42;;;;;;;10.75;6.20;;;;;;;;;;5071871;28;20036;-51
2024/01/03 07:45:08;;;;;;;10.55;6.50;;;;;;;;;;5074924;28;20032;-48
2024/01/03 07:47:34;;;;;;;11.10;6.40;;;;;;;;;;5090787;28;20020;-47
2024/01/03 07:50:00;;;;;;;11.57;6.85;;;;;;;;;;5091030;28;20040;-52
2024/01/03 07:52:27;;;;;;;10.70;6.20;;;;;;;;;;5092127;28;20474;-51
2024/01/03 07:54:53;;;;;;;10.98;6.50;;;;;;;;;;5091915;28;20052;-52
2024/01/03 07:57:19;;;;;;;10.93;6.40;;;;;;;;;;5083542;28;20040;-46
2024/01/03 07:59:45;;;;;;;16.10;6.45;;;;;;;;;;5071600;28;20020;-47
2024/01/03 08:02:14;;;;;;;10.15;5.90;;;;;;;;;;5066843;28;20021;-47
2024/01/03 08:04:40;;;;;;;10.48;6.05;;;;;;;;;;5068030;28;20063;-49
2024/01/03 08:07:09;;;;;;;11.15;6.00;;;;;;;;;;5071182;28;20046;-52
2024/01/03 08:09:37;;;;;;;10.00;6.10;;;;;;;;;;5071232;28;20033;-46
2024/01/03 08:12:04;;;;;;;9.70;5.70;;;;;;;;;;5070709;28;20025;-49
2024/01/03 08:14:30;;;;;;;9.73;5.70;;;;;;;;;;5071190;28;20025;-50
2024/01/03 08:16:56;;;;;;;9.88;5.70;;;;;;;;;;5071113;28;20025;-49
2024/01/03 08:19:22;;;;;;;9.40;5.53;;;;;;;;;;5070939;28;20028;-49
2024/01/03 08:21:48;;;;;;;9.90;5.80;;;;;;;;;;5070612;28;20035;-52
2024/01/03 08:24:14;;;;;;;10.57;6.20;;;;;;;;;;5070741;28;20028;-52
2024/01/03 08:26:40;;;;;;;11.25;6.55;;;;;;;;;;5070792;28;20037;-48
2024/01/03 08:29:06;;;;;;;11.20;6.50;;;;;;;;;;5070780;28;20031;-46
2024/01/03 08:31:33;;;;;;;11.48;6.70;;;;;;;;;;5070579;28;20029;-48
2024/01/03 08:33:59;;;;;;;12.77;7.40;;;;;;;;;;5070750;28;20213;-49
2024/01/03 08:36:38;;;;;;;13.57;8.38;;;;;;;;;;5070759;28;20115;-51
2024/01/03 08:39:04;;;;;;;13.90;9.30;;;;;;;;;;5070489;28;20072;-52
2024/01/03 08:41:30;;;;;;;17.23;10.30;;;;;;;;;;5070359;28;20320;-49
2024/01/03 08:43:57;;;;;;;15.40;13.68;;;;;;;;;;5070393;28;20021;-49
2024/01/03 08:46:25;;;;;;;15.82;14.13;;;;;;;;;;5072860;28;20549;-49
2024/01/03 08:48:51;;;;;;;16.10;14.40;;;;;;;;;;5052997;28;20029;-52
2024/01/03 08:51:17;;;;;;;15.93;14.23;;;;;;;;;;5050207;28;20100;-59
2024/01/03 08:53:43;;;;;;;15.85;14.15;;;;;;;;;;5049699;28;20114;-57
2024/01/03 08:56:16;;;;;;;16.75;15.05;;;;;;;;;;5050327;28;20017;-58
2024/01/03 08:58:42;;;;;;;16.58;14.88;;;;;;;;;;5050252;28;20024;-59
2024/01/03 09:01:08;;;;;;;18.48;16.58;;;;;;;;;;5049925;28;20095;-62
2024/01/03 09:03:38;;;;;;;16.70;14.90;;;;;;;;;;5050161;28;20032;-62
2024/01/03 09:06:05;;;;;;;15.77;14.07;;;;;;;;;;5069974;28;20033;-61
2024/01/03 09:08:31;;;;;;;15.73;13.98;;;;;;;;;;5072504;28;20029;-57
2024/01/03 09:10:57;;;;;;;15.18;13.05;;;;;;;;;;5088096;28;20020;-60
2024/01/03 09:13:23;;;;;;;15.88;12.80;;;;;;;;;;5071818;28;20025;-59
2024/01/03 09:15:49;;;;;;;18.83;13.15;;;;;;;;;;5050615;28;20033;-56
2024/01/03 09:18:15;;;;;;;14.50;11.10;;;;;;;;;;5050276;28;20035;-59
2024/01/03 09:20:41;;;;;;;14.43;10.68;;;;;;;;;;5048902;28;20025;-60
2024/01/03 09:23:07;;;;;;;15.45;13.38;;;;;;;;;;5051552;28;20036;-62
2024/01/03 09:25:33;;;;;;;14.27;10.65;;;;;;;;;;5067688;28;20108;-62
2024/01/03 09:27:59;;;;;;;14.30;10.60;;;;;;;;;;5069943;28;20402;-60
2024/01/03 09:30:25;;;;;;;17.98;10.60;;;;;;;;;;5069893;28;20051;-59
2024/01/03 09:32:51;;;;;;;14.18;10.30;;;;;;;;;;5070087;28;20020;-58
2024/01/03 09:35:17;;;;;;;14.18;10.40;;;;;;;;;;5070161;28;20403;-57
2024/01/03 09:37:43;;;;;;;19.27;10.85;;;;;;;;;;5069547;28;20039;-58
2024/01/03 09:40:11;;;;;;;14.10;9.95;;;;;;;;;;5070001;28;20027;-47
2024/01/03 09:42:37;;;;;;;14.10;10.05;;;;;;;;;;5069876;28;20036;-51
2024/01/03 09:45:04;;;;;;;16.77;10.25;;;;;;;;;;5070202;28;20448;-54
2024/01/03 09:47:30;;;;;;;14.00;9.80;;;;;;;;;;5070035;28;20090;-53
2024/01/03 09:49:56;;;;;;;14.40;9.70;;;;;;;;;;5069440;28;20388;-51
2024/01/03 09:52:23;;;;;;;15.27;10.13;;;;;;;;;;5069447;28;20028;-50
2024/01/03 09:54:51;;;;;;;13.88;9.60;;;;;;;;;;5063213;28;20033;-49
2024/01/03 09:57:20;;;;;;;14.20;9.90;;;;;;;;;;5078778;28;20028;-51
2024/01/03 09:59:46;;;;;;;16.27;10.27;;;;;;;;;;5062183;28;20630;-54
2024/01/03 10:02:12;;;;;;;13.88;9.38;;;;;;;;;;5077061;28;20032;-53
2024/01/03 10:04:38;;;;;;;15.98;11.65;;;;;;;;;;5071219;28;20035;-49
2024/01/03 10:07:04;;;;;;;13.65;8.82;;;;;;;;;;5069543;28;20273;-51
2024/01/03 10:09:41;;;;;;;14.40;9.18;;;;;;;;;;5069436;28;20413;-55
2024/01/03 10:12:17;;;;;;;14.90;8.52;;;;;;;;;;5069205;28;20017;-52
2024/01/03 10:14:44;;;;;;;13.70;8.38;;;;;;;;;;5073160;28;20114;-54
2024/01/03 10:17:10;;;;;;;14.15;8.07;;;;;;;;;;5088072;28;20443;-54
2024/01/03 10:19:36;;;;;;;12.32;7.10;;;;;;;;;;5092691;28;20012;-53
2024/01/03 10:22:03;;;;;;;12.52;7.25;;;;;;;;;;5093882;28;20030;-55
2024/01/03 10:24:29;;;;;;;11.65;6.80;;;;;;;;;;5093873;28;20107;-53
2024/01/03 10:27:15;;;;;;;14.02;7.43;;;;;;;;;;5093576;28;20039;-54
2024/01/03 10:29:41;;;;;;;12.45;7.15;;;;;;;;;;5093496;28;20027;-54
2024/01/03 10:32:10;;;;;;;12.23;7.20;;;;;;;;;;5093303;28;20043;-54
2024/01/03 10:34:35;;;;;;;;;;;;;;;;;;5093903;28;20020;-51
2024/01/03 10:37:02;;;;;;;13.93;7.53;;;;;;;;;;5093281;28;20364;-47
2024/01/03 10:39:29;;;;;;;13.05;7.75;;;;;;;;;;5072545;28;20024;-53
2024/01/03 10:41:56;;;;;;;12.40;7.40;;;;;;;;;;5072114;28;20028;-54
2024/01/03 10:44:22;;;;;;;11.10;6.57;;;;;;;;;;5068654;28;20035;-55
2024/01/03 10:46:48;;;;;;;14.95;8.30;;;;;;;;;;5053028;28;20420;-55
2024/01/03 10:49:18;;;;;;;17.08;9.93;;;;;;;;;;5054068;28;20055;-56
2024/01/03 10:51:44;;;;;;;13.50;8.40;;;;;;;;;;5051130;28;20082;-50
2024/01/03 10:54:11;;;;;;;13.80;9.27;;;;;;;;;;5051634;28;20055;-51
2024/01/03 10:56:38;;;;;;;13.85;9.30;;;;;;;;;;5052798;28;20021;-47
2024/01/03 10:59:05;;;;;;;13.48;8.40;;;;;;;;;;5052997;28;20044;-52
2024/01/03 11:01:44;;;;;;;14.40;9.15;;;;;;;;;;5052614;28;20063;-54
2024/01/03 11:04:16;;;;;;;15.10;8.80;;;;;;;;;;5065951;28;20027;-55
2024/01/03 11:06:42;;;;;;;13.15;7.82;;;;;;;;;;5084060;28;20020;-52
2024/01/03 11:09:09;;;;;;;21.77;10.45;;;;;;;;;;5092664;28;20024;-52
2024/01/03 11:11:36;;;;;;;13.80;8.85;;;;;;;;;;5092443;28;20048;-49
2024/01/03 11:14:03;;;;;;;15.05;8.32;;;;;;;;;;5062577;28;20444;-50
2024/01/03 11:16:35;;;;;;;15.75;8.75;;;;;;;;;;5052301;28;20136;-53
2024/01/03 11:19:02;;;;;;;20.35;8.48;;;;;;;;;;5051692;28;20021;-54
2024/01/03 11:21:30;;;;;;;14.25;8.32;;;;;;;;;;5050973;28;20078;-53
2024/01/03 11:23:56;;;;;;;12.57;7.30;;;;;;;;;;5050965;28;20028;-51
2024/01/03 11:26:41;;;;;;;13.00;7.78;;;;;;;;;;5052240;28;20029;-50
2024/01/03 11:29:07;;;;;;;17.67;8.07;;;;;;;;;;5051957;28;20048;-54
2024/01/03 11:31:52;;;;;;;13.38;7.15;;;;;;;;;;5051640;28;20060;-54
2024/01/03 11:34:37;;;;;;;12.00;6.95;;;;;;;;;;5051654;28;20021;-52
2024/01/03 11:37:04;;;;;;;13.68;7.50;;;;;;;;;;5051814;28;20394;-53
2024/01/03 11:39:34;;;;;;;28.45;8.38;;;;;;;;;;5051732;28;20399;-56
2024/01/03 11:42:00;;;;;;;12.88;7.68;;;;;;;;;;5051801;28;20067;-54
2024/01/03 11:44:26;;;;;;;13.30;7.63;;;;;;;;;;5051824;28;20028;-50
2024/01/03 11:47:19;;;;;;;16.10;7.68;;;;;;;;;;5050535;28;20380;-50
2024/01/03 11:49:45;;;;;;;13.57;8.70;;;;;;;;;;5050392;28;20125;-54
2024/01/03 11:52:11;;;;;;;13.55;8.45;;;;;;;;;;5051319;28;20155;-55
2024/01/03 11:54:37;;;;;;;14.15;9.25;;;;;;;;;;5051595;28;20017;-56
2024/01/03 11:57:09;;;;;;;13.73;9.05;;;;;;;;;;5051550;28;20021;-58
2024/01/03 11:59:35;;;;;;;14.13;9.63;;;;;;;;;;5050843;28;20016;-57
2024/01/03 12:02:01;;;;;;;22.88;15.27;;;;;;;;;;5051508;28;20060;-58
2024/01/03 12:04:27;;;;;;;17.00;15.20;;;;;;;;;;5051671;28;20093;-54
2024/01/03 12:07:00;;;;;;;18.85;17.05;;;;;;;;;;5051604;28;20037;-56
2024/01/03 12:09:31;;;;;;;21.42;19.30;;;;;;;;;;5051271;28;20025;-55
2024/01/03 12:11:57;;;;;;;21.02;19.13;;;;;;;;;;5051482;28;20044;-54
2024/01/03 12:14:23;;;;;;;22.90;20.90;;;;;;;;;;5051430;28;20025;-56
2024/01/03 12:16:53;;;;;;;24.40;22.10;;;;;;;;;;5051365;28;20025;-55
2024/01/03 12:19:23;;;;;;;23.85;21.55;;;;;;;;;;5051403;28;20025;-59
2024/01/03 12:21:59;;;;;;;24.73;22.35;;;;;;;;;;5050902;28;20049;-57
2024/01/03 12:24:41;;;;;;;19.65;17.65;;;;;;;;;;5051080;28;20029;-52
2024/01/03 12:27:07;;;;;;;18.50;16.60;;;;;;;;;;5050815;28;20446;-56
2024/01/03 12:29:34;;;;;;;18.92;16.15;;;;;;;;;;5050950;28;20039;-57
2024/01/03 12:32:13;;;;;;;16.85;13.27;;;;;;;;;;5050442;28;20024;-55
2024/01/03 12:34:39;;;;;;;17.92;12.93;;;;;;;;;;5071120;28;20024;-56
2024/01/03 12:37:05;;;;;;;17.08;12.60;;;;;;;;;;5074871;28;20490;-57
2024/01/03 12:39:35;;;;;;;15.00;9.98;;;;;;;;;;5074742;23;20123;-55
2024/01/03 12:42:04;;;;;;;15.23;9.73;;;;;;;;;;5060206;28;20083;-57
2024/01/03 12:44:33;;;;;;;19.48;12.38;;;;;;;;;;5069374;28;20032;-58
2024/01/03 12:46:59;;;;;;;13.73;9.10;;;;;;;;;;5060157;28;20491;-56
2024/01/03 12:49:25;;;;;;;18.17;10.57;;;;;;;;;;5051132;28;20104;-55
2024/01/03 12:51:53;;;;;;;13.90;9.45;;;;;;;;;;5048656;28;20106;-56
2024/01/03 12:54:19;;;;;;;13.70;9.18;;;;;;;;;;5049366;28;20184;-54
2024/01/03 12:56:45;;;;;;;16.55;9.80;;;;;;;;;;5048621;28;20028;-52
2024/01/03 12:59:11;;;;;;;15.10;9.90;;;;;;;;;;5047540;28;20393;-57
2024/01/03 13:01:37;;;;;;;13.82;9.35;;;;;;;;;;5048479;28;20021;-56
2024/01/03 13:04:03;;;;;;;14.35;8.80;;;;;;;;;;5047086;28;20044;-54
2024/01/03 13:06:29;;;;;;;14.85;11.88;;;;;;;;;;5046884;28;20364;-55
2024/01/03 13:08:55;;;;;;;29.60;15.02;;;;;;;;;;5048625;28;20055;-53
2024/01/03 13:11:21;;;;;;;16.00;14.25;;;;;;;;;;5047467;28;20514;-53
2024/01/03 13:13:47;;;;;;;16.33;14.63;;;;;;;;;;5021057;28;20038;-55
2024/01/03 13:16:13;;;;;;;18.63;16.70;;;;;;;;;;5022875;28;20143;-54
2024/01/03 13:18:40;;;;;;;21.80;19.67;;;;;;;;;;5028661;28;20562;-58
2024/01/03 13:21:06;;;;;;;29.20;25.45;;;;;;;;;;5024957;28;20018;-54
2024/01/03 13:23:32;;;;;;;29.48;26.48;;;;;;;;;;5024128;28;20032;-56
2024/01/03 13:25:59;;;;;;;33.50;30.90;;;;;;;;;;5026004;28;20088;-53
2024/01/03 13:28:25;;;;;;;30.30;27.80;;;;;;;;;;5028431;28;20025;-56
2024/01/03 13:30:51;;;;;;;31.48;27.95;;;;;;;;;;5026469;28;20029;-55
2024/01/03 13:33:17;;;;;;;29.88;27.15;;;;;;;;;;5048428;28;20532;-51
2024/01/03 13:35:43;;;;;;;28.83;25.90;;;;;;;;;;5048943;28;20119;-50
2024/01/03 13:38:11;;;;;;;27.42;25.00;;;;;;;;;;5047020;28;20550;-52
2024/01/03 13:40:38;;;;;;;24.65;22.65;;;;;;;;;;5048262;28;20083;-54
2024/01/03 13:43:05;;;;;;;23.88;21.73;;;;;;;;;;5048169;28;20036;-54
2024/01/03 13:45:31;;;;;;;22.38;20.48;;;;;;;;;;5048196;28;20028;-52
2024/01/03 13:47:57;;;;;;;21.48;19.55;;;;;;;;;;5048099;28;20029;-50
2024/01/03 13:50:23;;;;;;;21.05;18.83;;;;;;;;;;5048502;28;20673;-51
2024/01/03 13:52:49;;;;;;;20.00;18.10;;;;;;;;;;5047838;28;20483;-54
2024/01/03 13:55:15;;;;;;;17.00;15.30;;;;;;;;;;5047915;28;20048;-53
2024/01/03 13:57:41;;;;;;;17.73;15.57;;;;;;;;;;5047955;28;20066;-52
2024/01/03 14:00:13;;;;;;;16.17;13.73;;;;;;;;;;5039072;28;20484;-52
2024/01/03 14:02:39;;;;;;;15.40;13.65;;;;;;;;;;5026850;28;20061;-51
2024/01/03 14:05:05;;;;;;;15.63;13.23;;;;;;;;;;5027323;28;20025;-51
2024/01/03 14:07:31;;;;;;;15.10;12.85;;;;;;;;;;5027794;28;20048;-53
2024/01/03 14:09:57;;;;;;;14.80;12.20;;;;;;;;;;5027614;28;20033;-53
2024/01/03 14:12:23;;;;;;;14.60;11.60;;;;;;;;;;5027179;28;20029;-53
2024/01/03 14:14:49;;;;;;;18.08;12.60;;;;;;;;;;5027297;28;20502;-54
2024/01/03 14:17:15;;;;;;;15.10;12.40;;;;;;;;;;5023296;28;20018;-54
2024/01/03 14:19:41;;;;;;;14.88;12.23;;;;;;;;;;5024269;28;20506;-51
2024/01/03 14:22:07;;;;;;;14.90;11.63;;;;;;;;;;5027516;28;20036;-52
2024/01/03 14:24:33;;;;;;;14.60;11.50;;;;;;;;;;5027930;28;20045;-51
2024/01/03 14:26:59;;;;;;;14.40;11.00;;;;;;;;;;5034288;28;20039;-52